createdAt,value
2018-08-18T00:03:04.820Z,16.10
2018-08-18T00:06:59.579Z,15.90
2018-08-18T00:10:53.510Z,15.90
2018-08-18T00:14:47.435Z,15.80
2018-08-18T00:18:41.331Z,15.80
2018-08-18T00:22:35.264Z,15.80
2018-08-18T00:26:29.823Z,15.80
2018-08-18T00:30:26.554Z,15.80
2018-08-18T00:34:20.615Z,15.80
2018-08-18T00:38:14.373Z,15.80
2018-08-18T00:42:08.286Z,15.70
2018-08-18T00:46:02.322Z,15.70
2018-08-18T00:49:56.531Z,15.60
2018-08-18T00:53:50.478Z,15.60
2018-08-18T00:57:44.493Z,15.60
2018-08-18T01:01:38.386Z,15.60
2018-08-18T01:05:32.263Z,15.60
2018-08-18T01:09:26.202Z,15.70
2018-08-18T01:13:20.304Z,15.70
2018-08-18T01:17:14.227Z,15.70
2018-08-18T01:21:08.241Z,15.80
2018-08-18T01:25:02.168Z,15.90
2018-08-18T01:29:06.292Z,15.90
2018-08-18T01:33:00.268Z,15.80
2018-08-18T01:36:54.245Z,15.80
2018-08-18T01:40:48.257Z,15.70
2018-08-18T01:44:42.198Z,15.60
2018-08-18T01:48:36.089Z,15.60
2018-08-18T01:52:30.111Z,15.50
2018-08-18T01:56:30.027Z,15.40
2018-08-18T02:00:25.466Z,15.40
2018-08-18T02:04:19.817Z,15.40
2018-08-18T02:08:13.748Z,15.50
2018-08-18T02:12:08.147Z,15.50
2018-08-18T02:16:02.086Z,15.30
2018-08-18T02:19:56.425Z,15.30
2018-08-18T02:23:50.394Z,15.10
2018-08-18T02:27:44.477Z,15.00
2018-08-18T02:31:38.460Z,15.00
2018-08-18T02:35:32.394Z,14.90
2018-08-18T02:39:26.373Z,14.80
2018-08-18T02:43:23.468Z,14.80
2018-08-18T02:47:17.479Z,14.70
2018-08-18T02:51:11.382Z,14.80
2018-08-18T02:55:07.736Z,14.70
2018-08-18T02:59:02.331Z,14.80
2018-08-18T03:02:56.307Z,14.70
2018-08-18T03:06:51.131Z,14.80
2018-08-18T03:10:45.031Z,14.80
2018-08-18T03:14:40.195Z,14.80
2018-08-18T03:18:55.478Z,14.80
2018-08-18T03:22:49.408Z,14.70
2018-08-18T03:26:51.879Z,14.60
2018-08-18T03:30:45.843Z,14.70
2018-08-18T03:34:39.771Z,14.70
2018-08-18T03:38:33.701Z,14.70
2018-08-18T03:42:35.791Z,14.70
2018-08-18T03:46:29.825Z,14.80
2018-08-18T03:50:24.115Z,14.90
2018-08-18T03:54:18.092Z,15.00
2018-08-18T03:58:12.016Z,15.10
2018-08-18T04:02:06.055Z,15.10
2018-08-18T04:05:59.876Z,15.20
2018-08-18T04:09:54.600Z,15.20
2018-08-18T04:13:48.529Z,15.20
2018-08-18T04:17:42.501Z,15.10
2018-08-18T04:21:36.472Z,15.10
2018-08-18T04:25:30.379Z,15.10
2018-08-18T04:29:24.367Z,15.10
2018-08-18T04:33:18.329Z,15.10
2018-08-18T04:37:12.309Z,15.00
2018-08-18T04:41:06.214Z,15.10
2018-08-18T04:45:00.164Z,15.00
2018-08-18T04:48:54.767Z,15.10
2018-08-18T04:52:49.125Z,15.20
2018-08-18T04:56:43.176Z,15.30
2018-08-18T05:00:37.108Z,15.30
2018-08-18T05:04:31.050Z,15.30
2018-08-18T05:08:24.899Z,15.30
2018-08-18T05:12:18.842Z,15.40
2018-08-18T05:16:12.825Z,15.50
2018-08-18T05:20:11.990Z,15.50
2018-08-18T05:24:20.182Z,15.60
2018-08-18T05:28:14.133Z,15.70
2018-08-18T05:32:09.234Z,15.80
2018-08-18T05:36:03.200Z,15.80
2018-08-18T05:39:57.210Z,15.80
2018-08-18T05:43:51.226Z,15.80
2018-08-18T05:47:45.534Z,15.90
2018-08-18T05:51:44.124Z,16.00
2018-08-18T05:55:38.068Z,16.00
2018-08-18T05:59:32.196Z,16.10
2018-08-18T06:03:26.180Z,16.10
2018-08-18T06:07:20.186Z,16.20
2018-08-18T06:11:14.190Z,16.30
2018-08-18T06:15:08.181Z,16.40
2018-08-18T06:19:02.135Z,16.50
2018-08-18T06:22:56.077Z,16.60
2018-08-18T06:26:50.073Z,16.80
2018-08-18T06:30:44.107Z,16.80
2018-08-18T06:34:38.098Z,17.00
2018-08-18T06:38:31.992Z,17.00
2018-08-18T06:42:33.711Z,17.10
2018-08-18T06:46:27.857Z,17.30
2018-08-18T06:50:23.759Z,17.30
2018-08-18T06:54:17.736Z,17.40
2018-08-18T06:58:11.766Z,17.50
2018-08-18T07:02:05.811Z,17.60
2018-08-18T07:05:59.813Z,17.70
2018-08-18T07:09:53.667Z,17.80
2018-08-18T07:13:48.101Z,17.80
2018-08-18T07:17:42.188Z,17.90
2018-08-18T07:21:36.274Z,18.00
2018-08-18T07:25:30.224Z,18.00
2018-08-18T07:29:24.251Z,18.10
2018-08-18T07:33:18.221Z,18.20
2018-08-18T07:37:12.335Z,18.30
2018-08-18T07:41:06.271Z,18.40
2018-08-18T07:45:00.202Z,18.50
2018-08-18T07:48:54.111Z,18.60
2018-08-18T07:52:48.226Z,18.70
2018-08-18T07:56:42.085Z,18.70
2018-08-18T08:00:37.111Z,18.80
2018-08-18T08:04:31.117Z,18.90
2018-08-18T08:08:28.769Z,19.00
2018-08-18T08:12:22.857Z,19.00
2018-08-18T08:16:16.748Z,19.10
2018-08-18T08:20:10.745Z,19.20
2018-08-18T08:24:04.784Z,19.30
2018-08-18T08:27:58.859Z,19.40
2018-08-18T08:31:53.103Z,19.50
2018-08-18T08:35:47.022Z,19.50
2018-08-18T08:39:42.167Z,19.60
2018-08-18T08:43:36.191Z,19.70
2018-08-18T08:47:30.150Z,19.80
2018-08-18T08:51:24.427Z,19.90
2018-08-18T08:55:19.666Z,20.00
2018-08-18T08:59:13.691Z,20.00
2018-08-18T09:03:07.735Z,20.10
2018-08-18T09:07:01.712Z,20.10
2018-08-18T09:10:55.724Z,20.20
2018-08-18T09:14:49.690Z,20.30
2018-08-18T09:18:43.709Z,20.30
2018-08-18T09:23:08.835Z,20.40
2018-08-18T09:27:04.627Z,20.40
2018-08-18T09:30:58.673Z,20.50
2018-08-18T09:34:53.502Z,20.70
2018-08-18T09:38:47.481Z,20.70
2018-08-18T09:42:41.499Z,20.70
2018-08-18T09:46:35.548Z,20.80
2018-08-18T09:50:29.546Z,20.80
2018-08-18T09:54:23.515Z,20.90
2018-08-18T09:58:17.445Z,21.00
2018-08-18T10:02:13.227Z,21.10
2018-08-18T10:06:07.263Z,21.20
2018-08-18T10:10:01.262Z,21.20
2018-08-18T10:13:55.287Z,21.20
2018-08-18T10:17:49.296Z,21.30
2018-08-18T10:21:43.448Z,21.40
2018-08-18T10:25:37.403Z,21.50
2018-08-18T10:29:31.285Z,21.70
2018-08-18T10:33:25.393Z,21.80
2018-08-18T10:37:19.339Z,21.90
2018-08-18T10:47:37.190Z,22.00
2018-08-18T10:51:42.432Z,22.20
2018-08-18T10:55:36.400Z,22.40
2018-08-18T10:59:41.937Z,22.60
2018-08-18T11:03:35.855Z,22.70
2018-08-18T11:07:29.850Z,22.80
2018-08-18T11:11:23.848Z,22.80
2018-08-18T11:15:18.015Z,22.80
2018-08-18T11:19:12.103Z,22.90
2018-08-18T11:23:11.906Z,22.90
2018-08-18T11:27:05.958Z,22.90
2018-08-18T11:30:59.939Z,22.80
2018-08-18T11:34:54.815Z,22.90
2018-08-18T11:38:49.062Z,23.20
2018-08-18T11:42:43.320Z,23.30
2018-08-18T11:46:42.506Z,23.20
2018-08-18T11:50:36.586Z,23.20
2018-08-18T11:54:31.211Z,23.10
2018-08-18T11:58:25.654Z,23.20
2018-08-18T12:02:20.171Z,23.30
2018-08-18T12:06:20.691Z,23.30
2018-08-18T12:10:14.811Z,23.30
2018-08-18T12:14:08.820Z,23.20
2018-08-18T12:18:03.139Z,23.10
2018-08-18T12:21:57.435Z,23.30
2018-08-18T12:25:58.615Z,23.30
2018-08-18T12:29:53.408Z,23.20
2018-08-18T12:33:47.323Z,23.20
2018-08-18T12:37:41.331Z,23.30
2018-08-18T12:41:35.292Z,23.30
2018-08-18T12:45:29.208Z,23.50
2018-08-18T12:49:23.249Z,23.60
2018-08-18T12:53:17.329Z,23.60
2018-08-18T12:57:11.316Z,23.60
2018-08-18T13:01:05.313Z,23.80
2018-08-18T13:04:59.324Z,23.80
2018-08-18T13:08:53.370Z,23.90
2018-08-18T13:12:47.393Z,23.80
2018-08-18T13:16:41.354Z,23.80
2018-08-18T13:20:35.367Z,23.80
2018-08-18T13:24:30.974Z,23.90
2018-08-18T13:28:24.868Z,24.00
2018-08-18T13:32:18.853Z,24.10
2018-08-18T13:36:12.920Z,24.20
2018-08-18T13:40:10.183Z,24.30
2018-08-18T13:44:04.096Z,24.30
2018-08-18T13:48:02.949Z,24.40
2018-08-18T13:51:56.942Z,24.50
2018-08-18T13:55:50.883Z,24.50
2018-08-18T13:59:45.287Z,24.50
2018-08-18T14:03:40.124Z,24.40
2018-08-18T14:07:47.658Z,24.50
2018-08-18T14:11:42.243Z,24.60
2018-08-18T14:15:36.904Z,24.70
2018-08-18T14:19:30.855Z,24.70
2018-08-18T14:23:25.040Z,24.80
2018-08-18T14:27:21.459Z,24.80
2018-08-18T14:31:15.377Z,24.90
2018-08-18T14:35:09.341Z,25.00
2018-08-18T14:39:03.651Z,25.00
2018-08-18T14:42:57.644Z,25.00
2018-08-18T14:46:51.609Z,25.00
2018-08-18T14:50:46.154Z,25.00
2018-08-18T14:54:40.448Z,25.10
2018-08-18T14:58:34.773Z,25.10
2018-08-18T15:02:28.841Z,25.20
2018-08-18T15:06:23.663Z,25.20
2018-08-18T15:10:35.536Z,25.20
2018-08-18T15:14:30.211Z,25.00
2018-08-18T15:18:24.106Z,25.20
2018-08-18T15:22:18.027Z,25.20
2018-08-18T15:26:11.999Z,25.20
2018-08-18T15:30:06.009Z,25.10
2018-08-18T15:34:00.016Z,25.10
2018-08-18T15:37:53.980Z,25.10
2018-08-18T15:41:48.547Z,25.00
2018-08-18T15:46:01.851Z,24.90
2018-08-18T15:49:56.136Z,25.10
2018-08-18T15:54:05.800Z,25.20
2018-08-18T15:57:59.864Z,25.30
2018-08-18T16:01:53.816Z,25.30
2018-08-18T16:05:47.853Z,25.30
2018-08-18T16:09:41.790Z,25.40
2018-08-18T16:13:36.150Z,25.50
2018-08-18T16:17:30.270Z,25.60
2018-08-18T16:21:24.778Z,25.60
2018-08-18T16:25:32.996Z,25.60
2018-08-18T16:29:28.214Z,25.50
2018-08-18T16:33:22.129Z,25.40
2018-08-18T16:37:16.444Z,25.30
2018-08-18T16:41:10.364Z,25.30
2018-08-18T16:45:05.187Z,25.30
2018-08-18T16:48:59.500Z,25.20
2018-08-18T16:52:53.593Z,25.10
2018-08-18T16:56:47.945Z,25.00
2018-08-18T17:00:57.897Z,25.00
2018-08-18T17:04:51.808Z,24.90
2018-08-18T17:08:45.857Z,24.90
2018-08-18T17:12:39.747Z,24.70
2018-08-18T17:16:33.810Z,24.60
2018-08-18T17:20:27.811Z,24.50
2018-08-18T17:24:21.732Z,24.30
2018-08-18T17:28:15.742Z,24.00
2018-08-18T17:32:10.115Z,23.80
2018-08-18T17:36:04.210Z,23.60
2018-08-18T17:39:58.187Z,23.60
2018-08-18T17:43:52.091Z,23.50
2018-08-18T17:47:50.268Z,23.30
2018-08-18T17:51:57.219Z,23.10
2018-08-18T17:56:07.225Z,23.00
2018-08-18T18:00:05.415Z,22.80
2018-08-18T18:03:59.416Z,22.70
2018-08-18T18:07:57.063Z,22.70
2018-08-18T18:11:51.191Z,22.60
2018-08-18T18:15:47.659Z,22.50
2018-08-18T18:19:41.610Z,22.40
2018-08-18T18:23:35.577Z,22.30
2018-08-18T18:27:29.604Z,22.20
2018-08-18T18:31:23.887Z,22.00
2018-08-18T18:35:19.015Z,21.90
2018-08-18T18:39:12.992Z,21.80
2018-08-18T18:43:07.108Z,21.70
2018-08-18T18:47:01.017Z,21.60
2018-08-18T18:50:54.990Z,21.50
2018-08-18T18:54:49.140Z,21.40
2018-08-18T18:58:43.463Z,21.30
2018-08-18T19:02:43.879Z,21.20
2018-08-18T19:06:52.178Z,21.20
2018-08-18T19:10:46.414Z,21.10
2018-08-18T19:14:40.498Z,21.00
2018-08-18T19:18:34.456Z,20.90
2018-08-18T19:22:28.503Z,20.90
2018-08-18T19:26:22.543Z,20.80
2018-08-18T19:30:16.630Z,20.70
2018-08-18T19:34:12.578Z,20.60
2018-08-18T19:38:06.825Z,20.50
2018-08-18T19:42:07.153Z,20.40
2018-08-18T19:46:01.058Z,20.30
2018-08-18T19:49:55.114Z,20.30
2018-08-18T19:53:49.454Z,20.30
2018-08-18T19:57:43.432Z,20.20
2018-08-18T20:01:37.586Z,20.20
2018-08-18T20:05:31.498Z,20.10
2018-08-18T20:09:25.443Z,20.00
2018-08-18T20:13:20.349Z,20.00
2018-08-18T20:17:14.318Z,19.90
2018-08-18T20:21:09.347Z,19.90
2018-08-18T20:25:03.964Z,19.80
2018-08-18T20:28:57.917Z,19.80
2018-08-18T20:32:51.983Z,19.80
2018-08-18T20:36:46.131Z,19.70
2018-08-18T20:40:40.058Z,19.70
2018-08-18T20:44:34.329Z,19.60
2018-08-18T20:48:28.411Z,19.60
2018-08-18T20:52:22.503Z,19.50
2018-08-18T20:56:16.528Z,19.50
2018-08-18T21:00:11.477Z,19.50
2018-08-18T21:04:05.518Z,19.40
2018-08-18T21:08:04.157Z,19.40
2018-08-18T21:11:58.131Z,19.30
2018-08-18T21:15:52.468Z,19.30
2018-08-18T21:19:46.466Z,19.20
2018-08-18T21:23:40.379Z,19.20
2018-08-18T21:27:34.469Z,19.20
2018-08-18T21:31:34.525Z,19.20
2018-08-18T21:35:29.370Z,19.20
2018-08-18T21:39:23.327Z,19.10
2018-08-18T21:43:29.673Z,19.00
2018-08-18T21:47:23.594Z,19.00
2018-08-18T21:51:17.639Z,18.90
2018-08-18T21:55:12.389Z,18.90
2018-08-18T21:59:08.063Z,18.90
2018-08-18T22:03:02.055Z,18.90
2018-08-18T22:06:56.019Z,18.80
2018-08-18T22:10:54.194Z,18.70
2018-08-18T22:14:48.658Z,18.70
2018-08-18T22:18:50.100Z,18.70
2018-08-18T22:22:44.157Z,18.60
2018-08-18T22:26:39.327Z,18.60
2018-08-18T22:30:33.311Z,18.60
2018-08-18T22:34:28.383Z,18.60
2018-08-18T22:38:22.287Z,18.60
2018-08-18T22:42:16.295Z,18.70
2018-08-18T22:46:10.270Z,18.80
2018-08-18T22:50:05.023Z,18.80
2018-08-18T22:53:58.968Z,18.80
2018-08-18T22:57:58.050Z,18.80
2018-08-18T23:01:52.040Z,18.80
2018-08-18T23:05:46.001Z,18.70
2018-08-18T23:09:39.871Z,18.70
2018-08-18T23:13:33.777Z,18.70
2018-08-18T23:17:27.730Z,18.60
2018-08-18T23:21:28.697Z,18.60
2018-08-18T23:25:23.741Z,18.60
2018-08-18T23:29:18.509Z,18.50
2018-08-18T23:33:12.460Z,18.50
2018-08-18T23:37:10.666Z,18.50
2018-08-18T23:41:08.882Z,18.50
2018-08-18T23:45:02.814Z,18.50
2018-08-18T23:48:56.747Z,18.40
2018-08-18T23:52:58.758Z,18.40
2018-08-18T23:56:52.915Z,18.30
